Time;durP1;ratioP1;P1;durP2;ratioP2;P2;SDS_P1;SDS_P2;PMS_P1;PMS_P2;Temp;Humidity;BMP_temperature;BMP_pressure;BME280_temperature;BME280_humidity;BME280_pressure;Samples;Min_cycle;Max_cycle;Signal;HPM_P1;HPM_P2
2021/09/12 00:01:43;;;;;;;;;;;;;;;;;;;;;
2021/09/12 00:05:38;;;;;;;;;;;;;;;;;;;;;
2021/09/12 00:09:35;;;;;;;;;;;;;;;;;;;;;
2021/09/12 00:13:41;;;;;;;;;;;;;;;;;;;;;
2021/09/12 00:17:36;;;;;;;;;;;;;;;;;;;;;
2021/09/12 00:21:21;;;;;;;;;;;;;;;;;;;;;
2021/09/12 00:25:25;;;;;;;32.40;26.10;;;;;;;18.84;65.87;100023.27;110391;1229;108414;-73
2021/09/12 00:32:56;;;;;;;31.00;25.80;;;;;;;18.78;66.02;100021.64;111391;1220;635973;-72
2021/09/12 00:36:46;;;;;;;;;;;;;;;;;;;;;
2021/09/12 00:40:29;;;;;;;29.80;23.80;;;;;;;18.68;66.38;100025.59;112063;1204;137429;-74
2021/09/12 00:44:38;;;;;;;29.80;24.50;;;;;;;18.62;66.57;100024.25;111907;1211;108149;-72
2021/09/12 00:48:47;;;;;;;28.80;25.40;;;;;;;18.56;66.73;100020.77;111546;1214;107375;-72
2021/09/12 00:56:58;;;;;;;;;;;;;;;;;;;;;
2021/09/12 01:01:16;;;;;;;;;;;;;;;;;;;;;
2021/09/12 01:04:37;;;;;;;32.80;24.40;;;;;;;18.33;67.32;100016.02;110359;1222;137430;-72
2021/09/12 01:12:30;;;;;;;26.10;21.60;;;;;;;18.21;67.39;100012.85;109509;1230;138712;-73
2021/09/12 01:17:01;;;;;;;26.30;23.20;;;;;;;18.19;67.48;100011.02;111440;1211;638845;-72
2021/09/12 01:20:49;;;;;;;26.30;21.20;;;;;;;18.15;67.65;100010.59;112377;1208;93937;-72
2021/09/12 01:24:37;;;;;;;27.80;20.70;;;;;;;18.14;67.76;100012.23;111969;1208;136713;-72
2021/09/12 01:28:36;;;;;;;;;;;;;;;;;;;;;
2021/09/12 01:32:48;;;;;;;25.10;20.70;;;;;;;18.07;68.01;100010.53;111864;1212;106262;-72
2021/09/12 01:36:19;;;;;;;23.60;20.60;;;;;;;18.05;68.12;100014.54;111442;1221;136953;-72
2021/09/12 01:40:08;;;;;;;;;;;;;;;;;;;;;
2021/09/12 01:44:30;;;;;;;23.10;19.40;;;;;;;18.02;68.20;100011.43;111194;1217;94157;-72
2021/09/12 01:53:13;;;;;;;25.10;20.50;;;;;;;17.99;68.25;99997.92;111376;1217;107313;-73
2021/09/12 01:56:47;;;;;;;;;;;;;;;;;;;;;
2021/09/12 02:01:13;;;;;;;;;;;;;;;;;;;;;
2021/09/12 02:05:35;;;;;;;23.00;19.30;;;;;;;17.78;68.70;100001.61;111413;1222;94835;-73
2021/09/12 02:08:49;;;;;;;;;;;;;;;;;;;;;
2021/09/12 02:12:19;;;;;;;23.40;20.50;;;;;;;17.77;69.00;100002.86;111674;1218;137796;-71
2021/09/12 02:16:04;;;;;;;;;;;;;;;;;;;;;
2021/09/12 02:19:26;;;;;;;22.10;18.20;;;;;;;17.72;69.18;99999.38;111776;1211;137729;-72
2021/09/12 02:27:26;;;;;;;;;;;;;;;;;;;;;
2021/09/12 02:31:23;;;;;;;19.90;17.80;;;;;;;17.53;69.65;99992.48;111290;1221;137785;-71
2021/09/12 02:40:03;;;;;;;21.90;17.70;;;;;;;17.42;70.08;99993.36;111124;1224;94928;-73
2021/09/12 02:43:29;;;;;;;21.10;18.40;;;;;;;17.38;70.09;99998.73;111488;1215;137925;-72
2021/09/12 02:47:39;;;;;;;20.90;18.60;;;;;;;17.35;70.33;99998.05;111428;1222;108428;-73
2021/09/12 02:52:14;;;;;;;22.20;17.90;;;;;;;17.33;70.55;99996.94;111143;1216;136957;-73
2021/09/12 02:59:36;;;;;;;;;;;;;;;;;;;;;
2021/09/12 03:03:57;;;;;;;23.80;18.40;;;;;;;17.25;71.01;99998.71;110741;1227;137259;-73
2021/09/12 03:07:39;;;;;;;25.80;19.30;;;;;;;17.19;71.17;100003.27;110646;1226;137306;-72
2021/09/12 03:11:51;;;;;;;22.20;18.00;;;;;;;17.15;71.35;100007.25;110190;1230;105400;-72
2021/09/12 03:15:55;;;;;;;21.60;18.00;;;;;;;17.10;71.58;100007.02;110319;1226;138045;-72
2021/09/12 03:20:01;;;;;;;22.90;19.90;;;;;;;17.08;71.62;100007.52;110534;1221;138176;-72
2021/09/12 03:24:07;;;;;;;26.70;19.40;;;;;;;17.05;71.81;100005.73;110427;1229;95079;-73
2021/09/12 03:44:36;;;;;;;21.40;18.40;;;;;;;16.94;72.02;100016.61;109856;1227;137894;-73
2021/09/12 03:48:07;;;;;;;;;;;;;;;;;;;;;
2021/09/12 04:04:54;;;;;;;24.40;19.80;;;;;;;16.84;72.70;100010.90;109782;1233;137743;-72
2021/09/12 04:12:35;;;;;;;;;;;;;;;;;;;;;
2021/09/12 04:15:51;;;;;;;;;;;;;;;;;;;;;
2021/09/12 04:20:22;;;;;;;22.40;19.40;;;;;;;16.86;72.90;100018.37;109561;1231;94936;-73
2021/09/12 04:24:28;;;;;;;24.10;20.50;;;;;;;16.88;72.90;100020.30;109831;1231;94847;-71
2021/09/12 04:36:17;;;;;;;21.10;18.10;;;;;;;16.89;73.07;100031.72;109781;1234;108494;-72
2021/09/12 04:48:03;;;;;;;;;;;;;;;;;;;;;
2021/09/12 04:52:34;;;;;;;22.00;18.10;;;;;;;18.63;70.41;100023.33;110016;1232;137965;-72
2021/09/12 05:00:36;;;;;;;20.90;18.00;;;;;;;19.66;67.83;100023.39;110163;1224;137395;-72
2021/09/12 05:04:41;;;;;;;18.80;16.10;;;;;;;20.22;66.42;100025.36;109955;1227;137951;-76
2021/09/12 05:08:47;;;;;;;18.00;16.10;;;;;;;21.25;65.13;100019.16;110152;1230;110283;-72
2021/09/12 05:11:47;;;;;;;18.50;16.70;;;;;;;22.45;62.81;100018.64;110027;1232;137763;-72
2021/09/12 05:15:02;;;;;;;17.70;15.60;;;;;;;23.15;60.66;100018.23;110288;1225;108345;-70
2021/09/12 05:22:01;;;;;;;16.80;15.10;;;;;;;24.13;57.95;100017.20;110009;1232;137798;-73
2021/09/12 05:25:06;;;;;;;16.10;14.50;;;;;;;24.81;56.58;100014.23;110261;1231;107213;-71
2021/09/12 05:32:28;;;;;;;;;;;;;;;;;;;;;
2021/09/12 05:35:31;;;;;;;13.20;11.90;;;;;;;26.64;51.75;100009.27;109875;1226;137789;-72
2021/09/12 05:39:10;;;;;;;14.20;12.80;;;;;;;27.14;50.84;100009.04;110067;1226;95038;-72
2021/09/12 05:42:15;;;;;;;14.80;12.90;;;;;;;27.84;49.34;100008.00;110193;1230;137095;-71
2021/09/12 05:45:33;;;;;;;14.30;12.50;;;;;;;28.40;48.34;100012.51;110453;1222;108002;-72
2021/09/12 05:48:38;;;;;;;13.50;12.20;;;;;;;29.02;47.17;100003.35;110777;1219;109285;-72
2021/09/12 05:51:23;;;;;;;13.70;12.30;;;;;;;29.44;45.88;100000.05;110873;1219;95371;-73
2021/09/12 05:54:23;;;;;;;13.80;12.40;;;;;;;29.81;45.28;99999.04;110747;1226;137439;-73
2021/09/12 05:57:09;;;;;;;14.20;12.80;;;;;;;30.42;44.25;100000.80;110979;1219;110635;-73
2021/09/12 06:00:16;;;;;;;13.90;12.50;;;;;;;30.85;43.37;100000.25;111526;1213;138366;-72
2021/09/12 06:03:13;;;;;;;;;;;;;;;31.52;42.36;99997.92;111897;1211;108535;-73
2021/09/12 06:06:21;;;;;;;13.40;12.10;;;;;;;32.11;41.14;100000.73;111801;1211;123155;-72
2021/09/12 06:09:08;;;;;;;13.50;12.20;;;;;;;32.53;40.36;99996.17;112174;1210;94910;-72
2021/09/12 06:11:58;;;;;;;14.20;12.10;;;;;;;33.09;39.57;99996.97;112154;1211;137237;-75
2021/09/12 06:15:47;;;;;;;14.10;11.90;;;;;;;33.52;38.19;100001.01;112289;1211;97562;-72
2021/09/12 06:18:41;;;;;;;13.30;12.00;;;;;;;33.70;37.40;100005.09;112123;1203;137184;-72
2021/09/12 06:21:28;;;;;;;15.90;12.50;;;;;;;33.93;37.08;100005.82;112231;1204;94860;-73
2021/09/12 06:24:36;;;;;;;;;;;;;;;34.34;36.50;100008.46;112142;1211;137206;-75
2021/09/12 06:27:23;;;;;;;;;;;;;;;34.58;35.82;100010.78;112253;1204;99830;-73
2021/09/12 06:30:12;;;;;;;13.50;12.30;;;;;;;34.79;35.35;100008.50;112149;1203;123362;-74
2021/09/12 06:33:14;;;;;;;12.90;11.60;;;;;;;34.96;34.85;100009.89;112251;1205;97516;-73
2021/09/12 06:36:05;;;;;;;13.20;12.00;;;;;;;35.41;34.37;100015.09;112101;1203;137340;-73
2021/09/12 06:38:54;;;;;;;15.50;12.50;;;;;;;35.65;33.63;100017.89;112270;1203;94843;-72
2021/09/12 06:41:45;;;;;;;15.40;12.70;;;;;;;36.00;33.33;100016.79;112140;1206;137240;-73
2021/09/12 06:44:38;;;;;;;14.90;13.30;;;;;;;36.45;32.42;100023.16;112216;1211;97649;-72
2021/09/12 06:47:57;;;;;;;12.70;11.50;;;;;;;36.52;31.92;100023.23;112142;1209;137198;-72
2021/09/12 06:50:55;;;;;;;13.00;11.90;;;;;;;36.89;31.95;100027.92;112276;1204;95079;-72
2021/09/12 06:53:50;;;;;;;13.60;12.30;;;;;;;37.37;31.38;100031.34;112204;1203;137318;-73
2021/09/12 06:56:57;;;;;;;13.00;11.80;;;;;;;37.63;30.19;100023.80;112353;1208;108588;-72
2021/09/12 06:59:45;;;;;;;12.80;11.60;;;;;;;37.82;30.10;100025.63;112120;1209;137307;-73
2021/09/12 07:02:39;;;;;;;13.50;12.20;;;;;;;38.06;29.63;100026.52;112347;1207;99900;-73
2021/09/12 07:05:29;;;;;;;12.50;11.20;;;;;;;38.14;29.10;100030.42;112146;1209;137266;-73
2021/09/12 07:08:16;;;;;;;11.40;10.30;;;;;;;38.27;29.26;100025.11;112347;1201;94856;-73
2021/09/12 07:11:04;;;;;;;12.00;10.90;;;;;;;38.81;29.16;100022.50;112204;1201;137808;-73
2021/09/12 07:13:51;;;;;;;12.30;11.00;;;;;;;39.38;28.24;100021.20;112327;1203;98863;-73
2021/09/12 07:16:39;;;;;;;11.30;10.20;;;;;;;39.55;27.81;100025.11;112130;1209;137557;-73
2021/09/12 07:19:26;;;;;;;11.70;10.50;;;;;;;39.79;27.57;100025.55;112300;1203;96225;-72
2021/09/12 07:22:14;;;;;;;12.30;11.00;;;;;;;40.08;27.05;100024.21;112331;1202;96296;-73
2021/09/12 07:25:01;;;;;;;11.00;10.00;;;;;;;40.23;26.88;100024.77;112192;1202;137843;-73
2021/09/12 07:27:49;;;;;;;12.10;10.90;;;;;;;40.45;26.53;100024.33;112329;1202;97484;-73
2021/09/12 07:30:36;;;;;;;10.80;9.50;;;;;;;40.56;26.24;100025.85;112151;1202;137370;-73
2021/09/12 07:33:23;;;;;;;12.00;10.00;;;;;;;40.78;26.09;100030.01;112485;1203;96169;-75
2021/09/12 07:36:10;;;;;;;11.80;10.80;;;;;;;40.86;25.46;100032.53;112650;1204;137419;-73
2021/09/12 07:39:02;;;;;;;12.40;10.60;;;;;;;40.64;25.54;100036.91;112742;1204;99846;-73
2021/09/12 07:41:56;;;;;;;11.40;10.40;;;;;;;40.55;25.40;100035.52;112568;1198;138047;-72
2021/09/12 07:44:54;;;;;;;11.50;10.30;;;;;;;40.32;25.40;100033.19;112687;1204;99166;-73
2021/09/12 07:47:42;;;;;;;11.10;9.90;;;;;;;40.29;25.63;100032.21;112601;1204;138003;-74
2021/09/12 07:50:30;;;;;;;9.80;8.80;;;;;;;40.28;25.51;100037.54;112770;1203;96727;-73
2021/09/12 07:53:26;;;;;;;10.40;9.10;;;;;;;40.26;25.66;100037.84;112595;1204;137121;-72
2021/09/12 07:56:14;;;;;;;;;;;;;;;40.43;25.80;100031.95;112779;1204;98504;-73
2021/09/12 07:59:01;;;;;;;9.90;9.00;;;;;;;40.64;25.34;100034.34;112639;1204;123573;-73
2021/09/12 08:01:53;;;;;;;12.60;9.60;;;;;;;40.19;25.41;100038.55;112689;1198;96209;-73
2021/09/12 08:04:41;;;;;;;13.30;11.90;;;;;;;40.19;25.20;100040.02;112609;1197;137309;-73
2021/09/12 08:07:32;;;;;;;10.80;9.80;;;;;;;40.04;25.11;100039.88;112677;1198;99825;-73
2021/09/12 08:10:19;;;;;;;11.60;10.40;;;;;;;39.93;25.42;100040.31;112758;1203;97753;-72
2021/09/12 08:13:06;;;;;;;11.20;10.10;;;;;;;39.93;25.34;100040.27;112661;1204;137309;-73
2021/09/12 08:15:53;;;;;;;12.20;10.90;;;;;;;40.03;25.76;100040.50;112733;1200;96155;-73
2021/09/12 08:18:41;;;;;;;11.70;10.50;;;;;;;40.37;25.62;100040.88;112595;1204;137885;-73
2021/09/12 08:21:28;;;;;;;11.00;10.00;;;;;;;40.34;25.07;100040.29;112746;1204;109438;-72
2021/09/12 08:24:24;;;;;;;11.70;10.50;;;;;;;40.40;25.22;100037.10;112597;1198;138065;-73
2021/09/12 08:27:11;;;;;;;12.10;10.90;;;;;;;40.29;25.31;100032.76;112739;1200;99421;-71
2021/09/12 08:30:01;;;;;;;13.00;11.70;;;;;;;40.05;25.54;100039.23;112587;1198;137514;-72
2021/09/12 08:32:50;;;;;;;12.40;10.90;;;;;;;39.97;25.55;100044.94;112717;1199;96179;-73
2021/09/12 08:35:50;;;;;;;12.20;11.00;;;;;;;39.98;25.66;100043.47;112649;1204;137421;-73
2021/09/12 08:38:40;;;;;;;13.20;10.40;;;;;;;39.62;25.62;100048.81;112684;1204;97585;-73
2021/09/12 08:41:31;;;;;;;12.40;11.20;;;;;;;39.29;25.89;100050.27;112676;1196;136313;-75
2021/09/12 08:44:19;;;;;;;13.60;12.30;;;;;;;38.74;26.20;100048.61;112765;1197;96284;-72
2021/09/12 08:47:07;;;;;;;13.90;12.60;;;;;;;38.12;26.60;100049.01;112601;1204;137688;-73
2021/09/12 08:49:54;;;;;;;13.10;11.90;;;;;;;37.54;27.33;100049.25;112739;1198;101176;-73
2021/09/12 08:52:44;;;;;;;13.10;11.80;;;;;;;37.22;27.95;100049.40;112776;1204;97508;-73
2021/09/12 08:55:33;;;;;;;13.40;12.00;;;;;;;36.94;28.41;100048.03;112745;1205;98973;-73
2021/09/12 08:58:21;;;;;;;13.40;12.00;;;;;;;36.96;28.53;100043.25;112747;1199;96310;-73
2021/09/12 09:01:11;;;;;;;13.10;11.70;;;;;;;36.78;28.77;100039.16;112642;1203;137317;-72
2021/09/12 09:04:40;;;;;;;13.10;11.80;;;;;;;36.10;29.31;100037.77;112706;1205;101143;-73
2021/09/12 09:07:30;;;;;;;13.80;11.30;;;;;;;35.26;30.09;100040.36;112686;1204;137478;-73
2021/09/12 09:10:42;;;;;;;14.60;13.30;;;;;;;34.32;30.85;100041.39;112766;1200;100030;-73
2021/09/12 09:13:38;;;;;;;13.50;12.10;;;;;;;33.55;31.83;100041.80;112638;1204;137575;-73
2021/09/12 09:16:57;;;;;;;13.30;12.00;;;;;;;32.85;32.73;100045.41;112757;1196;96150;-73
2021/09/12 09:19:53;;;;;;;13.00;11.70;;;;;;;32.20;33.85;100045.52;112597;1205;137145;-73
2021/09/12 09:22:50;;;;;;;13.00;11.80;;;;;;;31.66;34.69;100040.52;112799;1197;106092;-74
2021/09/12 09:26:40;;;;;;;15.10;13.50;;;;;;;31.45;35.32;100044.48;112606;1204;138528;-71
2021/09/12 09:30:01;;;;;;;13.30;12.10;;;;;;;31.02;36.16;100046.65;112665;1204;137635;-72
2021/09/12 09:33:18;;;;;;;14.00;12.40;;;;;;;30.80;36.86;100042.98;112777;1205;96342;-73
2021/09/12 09:36:39;;;;;;;12.60;11.40;;;;;;;30.74;37.46;100038.80;112575;1198;137366;-73
2021/09/12 09:39:58;;;;;;;12.60;11.30;;;;;;;30.82;37.60;100033.97;112687;1205;107193;-72
2021/09/12 09:43:25;;;;;;;12.50;11.20;;;;;;;30.91;37.60;100031.92;112595;1204;137579;-73
2021/09/12 09:47:16;;;;;;;12.60;11.10;;;;;;;30.90;37.80;100031.98;112688;1197;96189;-74
2021/09/12 09:50:26;;;;;;;12.70;11.40;;;;;;;30.91;37.50;100032.58;112797;1204;96172;-72
2021/09/12 09:53:24;;;;;;;12.70;11.40;;;;;;;30.74;37.72;100028.15;112801;1198;110943;-72
2021/09/12 09:56:58;;;;;;;10.90;9.90;;;;;;;30.57;38.06;100027.80;112616;1205;137364;-70
2021/09/12 09:59:47;;;;;;;11.30;10.20;;;;;;;30.61;38.38;100023.90;112332;1202;108576;-73
2021/09/12 10:02:41;;;;;;;11.40;10.10;;;;;;;30.38;38.46;100022.27;112218;1209;137474;-72
2021/09/12 10:05:36;;;;;;;10.80;9.70;;;;;;;30.20;38.73;100018.90;112396;1208;96192;-72
2021/09/12 10:08:59;;;;;;;10.20;9.30;;;;;;;29.99;39.03;100021.09;112232;1209;137162;-73
2021/09/12 10:12:05;;;;;;;;;;;;;;;;;;;;;
2021/09/12 10:15:39;;;;;;;10.90;9.80;;;;;;;29.79;39.74;100015.34;112244;1208;137459;-73
2021/09/12 10:18:35;;;;;;;10.30;9.10;;;;;;;30.14;40.14;100013.21;112298;1210;96209;-72
2021/09/12 10:21:52;;;;;;;9.60;8.70;;;;;;;30.72;39.60;100017.30;112413;1202;96197;-72
2021/09/12 10:25:40;;;;;;;9.80;8.70;;;;;;;31.04;38.72;100016.66;112347;1209;108436;-72
2021/09/12 10:28:57;;;;;;;9.20;8.40;;;;;;;30.83;38.42;100016.17;112348;1204;108254;-72
2021/09/12 10:32:16;;;;;;;9.10;8.20;;;;;;;30.84;38.59;100012.74;112197;1209;137518;-73
2021/09/12 10:35:45;;;;;;;8.50;7.70;;;;;;;31.00;38.92;100011.32;112302;1202;96217;-72
2021/09/12 10:38:36;;;;;;;8.70;7.80;;;;;;;31.32;38.71;100007.27;112667;1205;136989;-73
2021/09/12 10:41:40;;;;;;;9.20;8.30;;;;;;;31.13;38.07;100005.86;112792;1204;110869;-72
2021/09/12 10:45:40;;;;;;;8.70;7.90;;;;;;;30.85;38.25;100005.23;112595;1196;137141;-73
2021/09/12 10:48:36;;;;;;;9.80;8.00;;;;;;;30.58;38.30;100000.27;112789;1204;107468;-72
2021/09/12 10:52:11;;;;;;;;;;;;;;;;;;;;;
2021/09/12 10:55:22;;;;;;;7.80;7.10;;;;;;;30.27;38.74;99997.75;112337;1209;97158;-73
2021/09/12 10:58:31;;;;;;;8.30;7.50;;;;;;;30.10;39.00;99994.16;112283;1201;137208;-72
2021/09/12 11:01:56;;;;;;;8.00;7.30;;;;;;;30.05;39.21;99989.40;112343;1210;107300;-73
2021/09/12 11:04:53;;;;;;;9.10;8.20;;;;;;;30.41;39.49;99989.77;112324;1201;107446;-72
2021/09/12 11:08:04;;;;;;;8.60;7.60;;;;;;;30.69;39.12;99984.59;112312;1202;96265;-73
2021/09/12 11:11:33;;;;;;;7.30;6.60;;;;;;;30.97;38.76;99983.52;112187;1203;96492;-73
2021/09/12 11:15:01;;;;;;;7.80;7.10;;;;;;;31.08;38.29;99986.55;112174;1211;109849;-72
2021/09/12 11:18:13;;;;;;;7.80;6.90;;;;;;;30.79;38.26;99989.73;112246;1205;105422;-73
2021/09/12 11:21:06;;;;;;;7.80;7.00;;;;;;;30.16;38.50;99986.60;112204;1206;107440;-73
2021/09/12 11:24:22;;;;;;;8.30;7.50;;;;;;;29.47;39.35;99984.84;112094;1211;136764;-72
2021/09/12 11:27:24;;;;;;;8.50;7.70;;;;;;;28.72;40.29;99984.69;112243;1211;96218;-72
2021/09/12 11:31:14;;;;;;;8.50;7.70;;;;;;;28.05;41.13;99989.74;112222;1209;110822;-72
2021/09/12 11:34:42;;;;;;;8.30;7.30;;;;;;;27.33;42.43;99993.64;112093;1205;137755;-72
2021/09/12 11:38:32;;;;;;;;;;;;;;;;;;;;;
2021/09/12 11:42:22;;;;;;;9.10;8.00;;;;;;;26.33;44.79;99990.13;112107;1205;137020;-73
2021/09/12 11:46:04;;;;;;;;;;;;;;;;;;;;;
2021/09/12 11:49:36;;;;;;;10.60;8.80;;;;;;;25.84;46.53;99974.39;111174;1215;635391;-73
2021/09/12 11:53:30;;;;;;;9.40;8.50;;;;;;;25.71;47.35;99973.12;112138;1204;136719;-74
2021/09/12 11:57:30;;;;;;;9.40;8.50;;;;;;;25.65;47.40;99964.73;112061;1209;93864;-72
2021/09/12 12:00:30;;;;;;;10.00;8.60;;;;;;;25.82;47.97;99963.77;111962;1209;136325;-72
2021/09/12 12:03:28;;;;;;;8.40;7.60;;;;;;;26.12;48.07;99961.63;112046;1209;105333;-72
2021/09/12 12:06:59;;;;;;;8.40;7.50;;;;;;;26.38;47.02;99962.87;111921;1208;136947;-72
2021/09/12 12:10:53;;;;;;;8.10;7.20;;;;;;;26.31;46.88;99968.27;111899;1212;96008;-72
2021/09/12 12:14:21;;;;;;;9.00;8.20;;;;;;;26.53;46.88;99966.55;111923;1212;94153;-72
2021/09/12 12:17:43;;;;;;;;;;;;;;;;;;;;;
2021/09/12 12:21:30;;;;;;;;;;;;;;;27.05;46.54;99959.77;111992;1212;106405;-73
2021/09/12 12:27:51;;;;;;;5.10;4.50;;;;;;;27.71;44.34;99945.31;111872;1212;95326;-73
2021/09/12 12:31:05;;;;;;;4.70;4.30;;;;;;;27.72;43.34;99936.24;111954;1209;136534;-73
2021/09/12 12:35:03;;;;;;;5.90;4.30;;;;;;;27.79;43.00;99936.91;112130;1212;108837;-70
2021/09/12 12:38:24;;;;;;;5.70;5.10;;;;;;;28.03;43.71;99935.52;112240;1210;107291;-73
2021/09/12 12:41:30;;;;;;;5.70;5.20;;;;;;;28.29;43.91;99930.45;112270;1205;108551;-73
2021/09/12 12:44:17;;;;;;;5.80;5.20;;;;;;;28.38;43.61;99933.09;112281;1210;94912;-73
2021/09/12 12:47:43;;;;;;;;;;;;;;;;;;;;;
2021/09/12 12:50:41;;;;;;;6.80;5.30;;;;;;;28.05;43.58;99949.03;112408;1207;137031;-74
2021/09/12 12:54:19;;;;;;;5.30;4.80;;;;;;;27.62;43.50;99949.48;112408;1201;106207;-72
2021/09/12 12:57:14;;;;;;;5.70;5.20;;;;;;;26.98;44.33;99958.27;112282;1203;107524;-72
2021/09/12 13:00:33;;;;;;;6.20;5.10;;;;;;;26.43;44.84;99954.14;112287;1204;94803;-73
2021/09/12 13:04:23;;;;;;;6.00;5.40;;;;;;;25.86;45.78;99950.66;112208;1209;136454;-72
2021/09/12 13:07:34;;;;;;;9.20;5.80;;;;;;;25.39;47.33;99949.51;111841;1217;136784;-72
2021/09/12 13:11:01;;;;;;;8.00;6.80;;;;;;;25.07;48.44;99946.09;111931;1210;106131;-72
2021/09/12 13:14:05;;;;;;;6.30;5.70;;;;;;;24.86;49.18;99940.77;111828;1218;136710;-72
2021/09/12 13:17:22;;;;;;;6.90;6.20;;;;;;;24.65;50.15;99944.61;111962;1211;94873;-72
2021/09/12 13:20:35;;;;;;;8.70;6.20;;;;;;;24.46;50.96;99935.56;111853;1211;136609;-73
2021/09/12 13:23:58;;;;;;;;;;;;;;;;;;;;;
2021/09/12 13:27:30;;;;;;;8.60;7.70;;;;;;;24.32;52.15;99946.71;111872;1217;136717;-73
2021/09/12 13:30:46;;;;;;;8.70;7.40;;;;;;;24.31;52.77;99949.10;111951;1216;107700;-73
2021/09/12 13:34:44;;;;;;;;;;;;;;;;;;;;;
2021/09/12 13:38:46;;;;;;;;;;;;;;;;;;;;;
2021/09/12 13:42:20;;;;;;;6.60;5.90;;;;;;;24.30;53.19;99953.48;111887;1212;108558;-71
2021/09/12 13:46:16;;;;;;;6.60;5.60;;;;;;;24.25;52.85;99951.61;112085;1212;136657;-72
2021/09/12 13:49:32;;;;;;;6.80;5.70;;;;;;;24.30;53.03;99950.25;112118;1211;136848;-72
2021/09/12 13:52:49;;;;;;;6.10;4.90;;;;;;;24.52;53.19;99941.20;112225;1211;94025;-73
2021/09/12 13:56:00;;;;;;;4.90;4.40;;;;;;;24.81;52.87;99941.11;112127;1206;136699;-72
2021/09/12 13:59:29;;;;;;;5.30;4.60;;;;;;;25.08;52.04;99934.80;112220;1212;108477;-73
2021/09/12 14:02:48;;;;;;;6.40;4.60;;;;;;;25.21;51.47;99933.34;112219;1211;136746;-73
2021/09/12 14:06:11;;;;;;;5.50;4.80;;;;;;;25.15;51.05;99926.77;112154;1206;107497;-73
2021/09/12 14:09:40;;;;;;;5.20;4.70;;;;;;;25.01;51.05;99923.91;112110;1204;136641;-73
2021/09/12 14:13:20;;;;;;;5.20;4.70;;;;;;;24.90;51.41;99928.70;112255;1211;94957;-73
2021/09/12 14:16:29;;;;;;;7.90;5.80;;;;;;;24.81;51.46;99934.24;112330;1210;108918;-72
2021/09/12 14:19:40;;;;;;;5.70;4.70;;;;;;;24.74;51.38;99930.63;112509;1199;107198;-73
2021/09/12 14:23:19;;;;;;;4.60;4.20;;;;;;;24.60;51.47;99928.55;112505;1207;108633;-72
2021/09/12 14:26:40;;;;;;;;;;;;;;;;;;;;;
2021/09/12 14:29:50;;;;;;;;;;;;;;;24.33;52.10;99927.98;112586;1206;94925;-73
2021/09/12 14:32:53;;;;;;;5.40;4.90;;;;;;;24.18;52.38;99930.98;112409;1207;123102;-73
2021/09/12 14:36:23;;;;;;;5.10;4.70;;;;;;;24.05;52.87;99929.12;112451;1207;107209;-72
2021/09/12 14:39:52;;;;;;;5.50;5.00;;;;;;;23.96;53.03;99934.75;112333;1203;136787;-73
2021/09/12 14:43:32;;;;;;;;;;;;;;;;;;;;;
2021/09/12 14:47:26;;;;;;;5.00;4.50;;;;;;;23.79;53.57;99934.41;112442;1207;136617;-72
2021/09/12 14:51:04;;;;;;;;;;;;;;;;;;;;;
2021/09/12 14:54:43;;;;;;;6.50;5.80;;;;;;;23.81;53.91;99939.55;112231;1204;106336;-73
2021/09/12 14:58:33;;;;;;;;;;;;;;;;;;;;;
2021/09/12 15:02:01;;;;;;;6.20;5.60;;;;;;;23.82;54.05;99935.41;112141;1206;96525;-73
2021/09/12 15:05:54;;;;;;;6.80;6.10;;;;;;;23.86;53.98;99940.11;112041;1208;95722;-72
2021/09/12 15:09:50;;;;;;;5.90;5.40;;;;;;;23.87;53.64;99937.06;111587;1221;136901;-73
2021/09/12 15:13:41;;;;;;;;;;;;;;;;;;;;;
2021/09/12 15:16:58;;;;;;;5.80;5.30;;;;;;;23.84;53.71;99928.11;111696;1216;136972;-74
2021/09/12 15:20:37;;;;;;;5.70;5.20;;;;;;;23.82;53.74;99927.55;111669;1221;94899;-73
2021/09/12 15:24:48;;;;;;;;;;;;;;;;;;;;;
2021/09/12 15:28:19;;;;;;;6.00;5.40;;;;;;;23.88;53.93;99918.50;111665;1216;137077;-73
2021/09/12 15:32:09;;;;;;;5.70;5.20;;;;;;;23.89;54.01;99918.25;111900;1211;106177;-73
2021/09/12 15:35:28;;;;;;;6.00;5.60;;;;;;;23.87;54.05;99922.83;111786;1216;136824;-73
2021/09/12 15:39:11;;;;;;;6.20;5.60;;;;;;;23.83;54.14;99923.38;111895;1216;94983;-73
2021/09/12 15:42:59;;;;;;;6.50;5.60;;;;;;;23.83;54.05;99919.81;112056;1212;95037;-72
2021/09/12 15:46:37;;;;;;;6.50;5.90;;;;;;;23.83;54.40;99918.39;112085;1211;137144;-72
2021/09/12 15:50:07;;;;;;;6.50;5.90;;;;;;;23.80;54.48;99912.26;112341;1206;106159;-73
2021/09/12 15:53:29;;;;;;;;;;;;;;;23.72;54.50;99908.57;112210;1209;136829;-73
2021/09/12 15:56:48;;;;;;;6.20;5.70;;;;;;;23.60;54.58;99906.17;112298;1206;96209;-73
2021/09/12 16:00:37;;;;;;;6.00;5.50;;;;;;;23.39;54.78;99905.72;112322;1209;137454;-72
2021/09/12 16:04:29;;;;;;;7.10;6.40;;;;;;;23.22;55.07;99899.81;112269;1206;109468;-72
2021/09/12 16:08:25;;;;;;;;;;;;;;;;;;;;;
2021/09/12 16:12:27;;;;;;;;;;;;;;;;;;;;;
2021/09/12 16:16:17;;;;;;;7.60;6.70;;;;;;;22.99;55.93;99893.95;112118;1209;94999;-73
2021/09/12 16:20:16;;;;;;;7.90;6.40;;;;;;;22.93;56.11;99886.98;111852;1214;95475;-70
2021/09/12 16:23:58;;;;;;;;;;;;;;;;;;;;;
2021/09/12 16:31:43;;;;;;;8.50;7.50;;;;;;;22.60;57.14;99883.16;111108;1222;136673;-73
2021/09/12 16:35:46;;;;;;;9.80;8.80;;;;;;;22.57;57.24;99883.66;111132;1215;137643;-73
2021/09/12 16:43:07;;;;;;;;;;;;;;;;;;;;;
2021/09/12 16:50:12;;;;;;;8.00;7.20;;;;;;;22.51;57.99;99884.18;110569;1226;123248;-72
2021/09/12 16:53:41;;;;;;;8.00;7.00;;;;;;;22.39;58.02;99883.83;110842;1225;138858;-73
2021/09/12 16:57:08;;;;;;;;;;;;;;;;;;;;;
2021/09/12 17:00:41;;;;;;;8.10;7.10;;;;;;;22.16;58.59;99883.50;111548;1220;136908;-72
2021/09/12 17:09:06;;;;;;;8.50;7.10;;;;;;;21.97;59.25;99891.83;111701;1221;109204;-73
2021/09/12 17:12:20;;;;;;;;;;;;;;;;;;;;;
2021/09/12 17:15:30;;;;;;;8.70;7.60;;;;;;;21.78;60.04;99891.73;111376;1214;94888;-72
2021/09/12 17:19:57;;;;;;;10.40;8.60;;;;;;;21.68;60.24;99894.11;111343;1222;136921;-72
2021/09/12 17:23:21;;;;;;;8.70;7.80;;;;;;;21.65;60.81;99896.46;111707;1219;108088;-72
2021/09/12 17:27:09;;;;;;;;;;;;;;;;;;;;;
2021/09/12 17:31:01;;;;;;;10.30;8.60;;;;;;;21.56;61.05;99902.34;111809;1214;137150;-73
2021/09/12 17:35:15;;;;;;;12.30;8.30;;;;;;;21.49;61.24;99908.09;112007;1209;94865;-73
2021/09/12 17:38:59;;;;;;;9.50;8.10;;;;;;;21.39;61.82;99909.92;111861;1212;136994;-73
2021/09/12 17:43:09;;;;;;;11.20;8.30;;;;;;;21.34;62.02;99910.89;111542;1213;137975;-74
2021/09/12 17:46:27;;;;;;;13.50;9.60;;;;;;;21.28;62.21;99908.23;111672;1218;108854;-74
2021/09/12 17:49:58;;;;;;;12.30;9.90;;;;;;;21.25;62.47;99906.89;111834;1212;137214;-72
2021/09/12 17:54:08;;;;;;;12.40;9.60;;;;;;;21.20;62.74;99906.80;111978;1208;96181;-73
2021/09/12 17:58:07;;;;;;;;;;;;;;;;;;;;;
2021/09/12 18:02:53;;;;;;;10.70;9.60;;;;;;;21.03;63.14;99911.67;111555;1220;137845;-72
2021/09/12 18:10:47;;;;;;;;;;;;;;;;;;;;;
2021/09/12 18:15:28;;;;;;;11.30;10.00;;;;;;;20.78;63.65;99906.61;111313;1215;137632;-73
2021/09/12 18:19:33;;;;;;;12.80;10.80;;;;;;;20.70;63.92;99912.92;111159;1219;109840;-73
2021/09/12 18:23:21;;;;;;;10.20;9.10;;;;;;;20.63;64.00;99920.54;111508;1214;106446;-72
2021/09/12 18:27:26;;;;;;;12.80;10.60;;;;;;;20.58;64.12;99924.67;111068;1218;138114;-73
2021/09/12 18:35:11;;;;;;;14.80;10.80;;;;;;;20.51;64.44;99936.17;110836;1224;137189;-72
2021/09/12 18:38:30;;;;;;;11.90;10.10;;;;;;;20.44;64.60;99935.06;111254;1215;138064;-73
2021/09/12 18:46:55;;;;;;;11.20;10.00;;;;;;;20.40;64.71;99943.71;110659;1221;138632;-72
2021/09/12 18:51:01;;;;;;;12.00;10.80;;;;;;;20.39;64.84;99946.27;110690;1226;96218;-73
2021/09/12 18:53:54;;;;;;;14.20;11.80;;;;;;;20.35;65.04;99943.56;110836;1226;97131;-73
2021/09/12 19:02:13;;;;;;;12.90;11.00;;;;;;;20.32;65.36;99945.70;110391;1229;108160;-73
2021/09/12 19:05:54;;;;;;;;;;;;;;;;;;;;;
2021/09/12 19:09:39;;;;;;;;;;;;;;;;;;;;;